sensor_id;sensor_type;location;lat;lon;timestamp;P1;durP1;ratioP1;P2;durP2;ratioP2
9330;SDS011;4704;50.470;12.072;2023-01-05T00:01:25;0.50;;;0.40;;
9330;SDS011;4704;50.470;12.072;2023-01-05T00:03:54;0.30;;;0.30;;
9330;SDS011;4704;50.470;12.072;2023-01-05T00:06:22;0.50;;;0.50;;
9330;SDS011;4704;50.470;12.072;2023-01-05T00:08:50;0.45;;;0.35;;
9330;SDS011;4704;50.470;12.072;2023-01-05T00:11:18;1.00;;;0.40;;
9330;SDS011;4704;50.470;12.072;2023-01-05T00:14:03;0.45;;;0.40;;
9330;SDS011;4704;50.470;12.072;2023-01-05T00:16:48;0.73;;;0.30;;
9330;SDS011;4704;50.470;12.072;2023-01-05T00:19:35;0.40;;;0.30;;
9330;SDS011;4704;50.470;12.072;2023-01-05T00:22:20;0.40;;;0.40;;
9330;SDS011;4704;50.470;12.072;2023-01-05T00:24:59;0.40;;;0.30;;
9330;SDS011;4704;50.470;12.072;2023-01-05T00:27:27;0.40;;;0.40;;
9330;SDS011;4704;50.470;12.072;2023-01-05T00:29:55;0.30;;;0.30;;
9330;SDS011;4704;50.470;12.072;2023-01-05T00:32:23;0.40;;;0.40;;
9330;SDS011;4704;50.470;12.072;2023-01-05T00:34:52;0.40;;;0.40;;
9330;SDS011;4704;50.470;12.072;2023-01-05T00:37:21;0.40;;;0.40;;
9330;SDS011;4704;50.470;12.072;2023-01-05T00:39:49;0.45;;;0.45;;
9330;SDS011;4704;50.470;12.072;2023-01-05T00:42:16;0.57;;;0.40;;
9330;SDS011;4704;50.470;12.072;2023-01-05T00:44:44;0.47;;;0.25;;
9330;SDS011;4704;50.470;12.072;2023-01-05T00:47:12;0.40;;;0.40;;
9330;SDS011;4704;50.470;12.072;2023-01-05T00:49:39;0.63;;;0.30;;
9330;SDS011;4704;50.470;12.072;2023-01-05T00:52:09;0.70;;;0.40;;
9330;SDS011;4704;50.470;12.072;2023-01-05T00:54:37;0.47;;;0.35;;
9330;SDS011;4704;50.470;12.072;2023-01-05T00:57:04;0.40;;;0.40;;
9330;SDS011;4704;50.470;12.072;2023-01-05T00:59:32;0.43;;;0.40;;
9330;SDS011;4704;50.470;12.072;2023-01-05T01:02:00;0.50;;;0.40;;
9330;SDS011;4704;50.470;12.072;2023-01-05T01:04:29;0.40;;;0.32;;
9330;SDS011;4704;50.470;12.072;2023-01-05T01:06:56;0.32;;;0.30;;
9330;SDS011;4704;50.470;12.072;2023-01-05T01:09:26;0.50;;;0.30;;
9330;SDS011;4704;50.470;12.072;2023-01-05T01:11:53;0.40;;;0.20;;
9330;SDS011;4704;50.470;12.072;2023-01-05T01:14:21;0.50;;;0.40;;
9330;SDS011;4704;50.470;12.072;2023-01-05T01:16:49;0.50;;;0.30;;
9330;SDS011;4704;50.470;12.072;2023-01-05T01:19:18;0.30;;;0.30;;
9330;SDS011;4704;50.470;12.072;2023-01-05T01:21:46;0.43;;;0.35;;
9330;SDS011;4704;50.470;12.072;2023-01-05T01:24:14;0.30;;;0.30;;
9330;SDS011;4704;50.470;12.072;2023-01-05T01:26:43;0.60;;;0.38;;
9330;SDS011;4704;50.470;12.072;2023-01-05T01:29:11;0.50;;;0.40;;
9330;SDS011;4704;50.470;12.072;2023-01-05T01:31:41;0.40;;;0.40;;
9330;SDS011;4704;50.470;12.072;2023-01-05T01:34:09;0.40;;;0.30;;
9330;SDS011;4704;50.470;12.072;2023-01-05T01:36:37;0.57;;;0.38;;
9330;SDS011;4704;50.470;12.072;2023-01-05T01:39:05;0.30;;;0.20;;
9330;SDS011;4704;50.470;12.072;2023-01-05T01:41:32;0.43;;;0.40;;
9330;SDS011;4704;50.470;12.072;2023-01-05T01:44:43;0.30;;;0.30;;
9330;SDS011;4704;50.470;12.072;2023-01-05T01:46:50;0.30;;;0.30;;
9330;SDS011;4704;50.470;12.072;2023-01-05T01:49:18;0.50;;;0.40;;
9330;SDS011;4704;50.470;12.072;2023-01-05T01:51:46;0.20;;;0.20;;
9330;SDS011;4704;50.470;12.072;2023-01-05T01:54:15;0.55;;;0.38;;
9330;SDS011;4704;50.470;12.072;2023-01-05T01:56:46;0.40;;;0.20;;
9330;SDS011;4704;50.470;12.072;2023-01-05T01:59:18;0.30;;;0.30;;
9330;SDS011;4704;50.470;12.072;2023-01-05T02:01:47;0.30;;;0.30;;
9330;SDS011;4704;50.470;12.072;2023-01-05T02:04:15;0.50;;;0.35;;
9330;SDS011;4704;50.470;12.072;2023-01-05T02:06:43;0.60;;;0.50;;
9330;SDS011;4704;50.470;12.072;2023-01-05T02:09:10;0.30;;;0.30;;
9330;SDS011;4704;50.470;12.072;2023-01-05T02:11:41;0.40;;;0.30;;
9330;SDS011;4704;50.470;12.072;2023-01-05T02:14:14;0.28;;;0.28;;
9330;SDS011;4704;50.470;12.072;2023-01-05T02:16:47;0.73;;;0.40;;
9330;SDS011;4704;50.470;12.072;2023-01-05T02:19:25;0.50;;;0.30;;
9330;SDS011;4704;50.470;12.072;2023-01-05T02:22:03;0.40;;;0.30;;
9330;SDS011;4704;50.470;12.072;2023-01-05T02:24:41;0.30;;;0.20;;
9330;SDS011;4704;50.470;12.072;2023-01-05T02:27:30;0.40;;;0.30;;
9330;SDS011;4704;50.470;12.072;2023-01-05T02:30:10;0.45;;;0.32;;
9330;SDS011;4704;50.470;12.072;2023-01-05T02:32:44;0.30;;;0.30;;
9330;SDS011;4704;50.470;12.072;2023-01-05T02:35:16;0.40;;;0.30;;
9330;SDS011;4704;50.470;12.072;2023-01-05T02:37:50;0.38;;;0.22;;
9330;SDS011;4704;50.470;12.072;2023-01-05T02:40:20;0.30;;;0.30;;
9330;SDS011;4704;50.470;12.072;2023-01-05T02:42:52;0.20;;;0.20;;
9330;SDS011;4704;50.470;12.072;2023-01-05T02:45:22;0.20;;;0.15;;
9330;SDS011;4704;50.470;12.072;2023-01-05T02:47:51;0.43;;;0.25;;
9330;SDS011;4704;50.470;12.072;2023-01-05T02:50:20;0.32;;;0.32;;
9330;SDS011;4704;50.470;12.072;2023-01-05T02:52:51;0.50;;;0.30;;
9330;SDS011;4704;50.470;12.072;2023-01-05T02:55:20;0.30;;;0.30;;
9330;SDS011;4704;50.470;12.072;2023-01-05T02:57:50;0.88;;;0.30;;
9330;SDS011;4704;50.470;12.072;2023-01-05T03:00:21;0.40;;;0.20;;
9330;SDS011;4704;50.470;12.072;2023-01-05T03:02:53;0.38;;;0.30;;
9330;SDS011;4704;50.470;12.072;2023-01-05T03:05:23;0.30;;;0.20;;
9330;SDS011;4704;50.470;12.072;2023-01-05T03:07:52;0.30;;;0.30;;
9330;SDS011;4704;50.470;12.072;2023-01-05T03:10:32;0.35;;;0.32;;
9330;SDS011;4704;50.470;12.072;2023-01-05T03:13:18;0.40;;;0.40;;
9330;SDS011;4704;50.470;12.072;2023-01-05T03:16:05;0.30;;;0.30;;
9330;SDS011;4704;50.470;12.072;2023-01-05T03:18:34;0.30;;;0.20;;
9330;SDS011;4704;50.470;12.072;2023-01-05T03:21:24;0.40;;;0.22;;
9330;SDS011;4704;50.470;12.072;2023-01-05T03:23:51;0.20;;;0.20;;
9330;SDS011;4704;50.470;12.072;2023-01-05T03:26:37;0.30;;;0.30;;
9330;SDS011;4704;50.470;12.072;2023-01-05T03:29:23;0.30;;;0.30;;
9330;SDS011;4704;50.470;12.072;2023-01-05T03:32:10;0.25;;;0.25;;
9330;SDS011;4704;50.470;12.072;2023-01-05T03:35:03;0.25;;;0.25;;
9330;SDS011;4704;50.470;12.072;2023-01-05T03:37:49;0.30;;;0.25;;
9330;SDS011;4704;50.470;12.072;2023-01-05T03:40:21;0.50;;;0.30;;
9330;SDS011;4704;50.470;12.072;2023-01-05T03:42:51;0.30;;;0.30;;
9330;SDS011;4704;50.470;12.072;2023-01-05T03:45:18;0.45;;;0.45;;
9330;SDS011;4704;50.470;12.072;2023-01-05T03:47:47;0.20;;;0.20;;
9330;SDS011;4704;50.470;12.072;2023-01-05T03:50:17;0.28;;;0.22;;
9330;SDS011;4704;50.470;12.072;2023-01-05T03:52:44;0.20;;;0.20;;
9330;SDS011;4704;50.470;12.072;2023-01-05T03:55:12;0.43;;;0.20;;
9330;SDS011;4704;50.470;12.072;2023-01-05T03:57:40;0.55;;;0.30;;
9330;SDS011;4704;50.470;12.072;2023-01-05T04:00:08;0.20;;;0.20;;
9330;SDS011;4704;50.470;12.072;2023-01-05T04:02:36;0.28;;;0.28;;
9330;SDS011;4704;50.470;12.072;2023-01-05T04:05:04;0.20;;;0.20;;
9330;SDS011;4704;50.470;12.072;2023-01-05T04:07:33;0.40;;;0.40;;
9330;SDS011;4704;50.470;12.072;2023-01-05T04:10:01;0.30;;;0.20;;
9330;SDS011;4704;50.470;12.072;2023-01-05T04:12:29;0.45;;;0.30;;
9330;SDS011;4704;50.470;12.072;2023-01-05T04:14:56;0.60;;;0.20;;
9330;SDS011;4704;50.470;12.072;2023-01-05T04:17:24;0.30;;;0.30;;
9330;SDS011;4704;50.470;12.072;2023-01-05T04:19:52;0.30;;;0.20;;
9330;SDS011;4704;50.470;12.072;2023-01-05T04:22:20;0.50;;;0.40;;
9330;SDS011;4704;50.470;12.072;2023-01-05T04:24:49;0.75;;;0.30;;
9330;SDS011;4704;50.470;12.072;2023-01-05T04:27:17;0.70;;;0.30;;
9330;SDS011;4704;50.470;12.072;2023-01-05T04:29:44;0.40;;;0.30;;
9330;SDS011;4704;50.470;12.072;2023-01-05T04:32:12;0.60;;;0.40;;
9330;SDS011;4704;50.470;12.072;2023-01-05T04:34:40;0.38;;;0.30;;
9330;SDS011;4704;50.470;12.072;2023-01-05T04:37:08;0.40;;;0.40;;
9330;SDS011;4704;50.470;12.072;2023-01-05T04:39:36;0.50;;;0.40;;
9330;SDS011;4704;50.470;12.072;2023-01-05T04:42:05;0.35;;;0.32;;
9330;SDS011;4704;50.470;12.072;2023-01-05T04:44:32;0.60;;;0.32;;
9330;SDS011;4704;50.470;12.072;2023-01-05T04:47:00;0.50;;;0.35;;
9330;SDS011;4704;50.470;12.072;2023-01-05T04:49:28;0.52;;;0.40;;
9330;SDS011;4704;50.470;12.072;2023-01-05T04:51:56;0.63;;;0.30;;
9330;SDS011;4704;50.470;12.072;2023-01-05T04:54:23;0.93;;;0.40;;
9330;SDS011;4704;50.470;12.072;2023-01-05T04:56:51;0.43;;;0.40;;
9330;SDS011;4704;50.470;12.072;2023-01-05T04:59:20;0.50;;;0.43;;
9330;SDS011;4704;50.470;12.072;2023-01-05T05:01:48;0.40;;;0.30;;
9330;SDS011;4704;50.470;12.072;2023-01-05T05:04:16;1.15;;;0.50;;
9330;SDS011;4704;50.470;12.072;2023-01-05T05:06:43;0.50;;;0.40;;
9330;SDS011;4704;50.470;12.072;2023-01-05T05:09:10;0.47;;;0.35;;
9330;SDS011;4704;50.470;12.072;2023-01-05T05:11:38;0.30;;;0.30;;
9330;SDS011;4704;50.470;12.072;2023-01-05T05:14:05;0.40;;;0.40;;
9330;SDS011;4704;50.470;12.072;2023-01-05T05:16:34;0.88;;;0.50;;
9330;SDS011;4704;50.470;12.072;2023-01-05T05:19:01;0.52;;;0.32;;
9330;SDS011;4704;50.470;12.072;2023-01-05T05:21:29;0.40;;;0.40;;
9330;SDS011;4704;50.470;12.072;2023-01-05T05:23:56;0.40;;;0.30;;
9330;SDS011;4704;50.470;12.072;2023-01-05T05:26:24;0.30;;;0.30;;
9330;SDS011;4704;50.470;12.072;2023-01-05T05:28:51;0.57;;;0.50;;
9330;SDS011;4704;50.470;12.072;2023-01-05T05:31:19;0.52;;;0.40;;
9330;SDS011;4704;50.470;12.072;2023-01-05T05:33:48;1.58;;;0.40;;
9330;SDS011;4704;50.470;12.072;2023-01-05T05:36:15;1.83;;;0.60;;
9330;SDS011;4704;50.470;12.072;2023-01-05T05:38:43;0.75;;;0.47;;
9330;SDS011;4704;50.470;12.072;2023-01-05T05:41:10;0.60;;;0.40;;
9330;SDS011;4704;50.470;12.072;2023-01-05T05:43:37;0.82;;;0.32;;
9330;SDS011;4704;50.470;12.072;2023-01-05T05:46:05;0.57;;;0.30;;
9330;SDS011;4704;50.470;12.072;2023-01-05T05:48:32;0.60;;;0.38;;
9330;SDS011;4704;50.470;12.072;2023-01-05T05:51:01;0.60;;;0.38;;
9330;SDS011;4704;50.470;12.072;2023-01-05T05:53:28;0.40;;;0.30;;
9330;SDS011;4704;50.470;12.072;2023-01-05T05:55:56;0.80;;;0.40;;
9330;SDS011;4704;50.470;12.072;2023-01-05T05:58:23;0.90;;;0.35;;
9330;SDS011;4704;50.470;12.072;2023-01-05T06:00:51;0.90;;;0.50;;
9330;SDS011;4704;50.470;12.072;2023-01-05T06:03:23;0.47;;;0.38;;
9330;SDS011;4704;50.470;12.072;2023-01-05T06:05:50;1.60;;;0.50;;
9330;SDS011;4704;50.470;12.072;2023-01-05T06:08:19;1.25;;;0.40;;
9330;SDS011;4704;50.470;12.072;2023-01-05T06:10:48;0.47;;;0.40;;
9330;SDS011;4704;50.470;12.072;2023-01-05T06:13:16;0.57;;;0.40;;
9330;SDS011;4704;50.470;12.072;2023-01-05T06:15:43;1.10;;;0.57;;
9330;SDS011;4704;50.470;12.072;2023-01-05T06:18:11;1.60;;;0.60;;
9330;SDS011;4704;50.470;12.072;2023-01-05T06:20:38;1.83;;;0.80;;
9330;SDS011;4704;50.470;12.072;2023-01-05T06:23:06;1.30;;;0.65;;
9330;SDS011;4704;50.470;12.072;2023-01-05T06:25:35;2.42;;;0.73;;
9330;SDS011;4704;50.470;12.072;2023-01-05T06:28:02;1.92;;;0.90;;
9330;SDS011;4704;50.470;12.072;2023-01-05T06:30:30;1.50;;;0.85;;
9330;SDS011;4704;50.470;12.072;2023-01-05T06:32:57;3.05;;;1.20;;
9330;SDS011;4704;50.470;12.072;2023-01-05T06:35:24;2.33;;;0.80;;
9330;SDS011;4704;50.470;12.072;2023-01-05T06:37:52;1.55;;;0.80;;
9330;SDS011;4704;50.470;12.072;2023-01-05T06:40:20;2.85;;;1.10;;
9330;SDS011;4704;50.470;12.072;2023-01-05T06:42:49;2.35;;;1.10;;
9330;SDS011;4704;50.470;12.072;2023-01-05T06:45:16;3.50;;;1.30;;
9330;SDS011;4704;50.470;12.072;2023-01-05T06:47:44;2.90;;;1.20;;
9330;SDS011;4704;50.470;12.072;2023-01-05T06:50:11;4.80;;;1.20;;
9330;SDS011;4704;50.470;12.072;2023-01-05T06:52:38;2.33;;;1.00;;
9330;SDS011;4704;50.470;12.072;2023-01-05T06:55:06;2.67;;;1.30;;
9330;SDS011;4704;50.470;12.072;2023-01-05T06:57:34;3.22;;;1.05;;
9330;SDS011;4704;50.470;12.072;2023-01-05T07:00:04;3.08;;;1.30;;
9330;SDS011;4704;50.470;12.072;2023-01-05T07:02:33;3.15;;;1.35;;
9330;SDS011;4704;50.470;12.072;2023-01-05T07:05:01;3.22;;;1.38;;
9330;SDS011;4704;50.470;12.072;2023-01-05T07:07:28;3.30;;;1.30;;
9330;SDS011;4704;50.470;12.072;2023-01-05T07:09:55;3.92;;;1.30;;
9330;SDS011;4704;50.470;12.072;2023-01-05T07:12:23;2.90;;;1.25;;
9330;SDS011;4704;50.470;12.072;2023-01-05T07:14:50;3.13;;;1.15;;
9330;SDS011;4704;50.470;12.072;2023-01-05T07:17:19;2.92;;;1.30;;
9330;SDS011;4704;50.470;12.072;2023-01-05T07:19:47;2.35;;;1.45;;
9330;SDS011;4704;50.470;12.072;2023-01-05T07:22:14;3.05;;;1.30;;
9330;SDS011;4704;50.470;12.072;2023-01-05T07:24:42;2.45;;;1.23;;
9330;SDS011;4704;50.470;12.072;2023-01-05T07:27:09;2.70;;;1.17;;
9330;SDS011;4704;50.470;12.072;2023-01-05T07:29:36;2.33;;;1.15;;
9330;SDS011;4704;50.470;12.072;2023-01-05T07:32:04;1.95;;;1.10;;
9330;SDS011;4704;50.470;12.072;2023-01-05T07:34:33;4.20;;;1.58;;
9330;SDS011;4704;50.470;12.072;2023-01-05T07:37:00;5.10;;;1.10;;
9330;SDS011;4704;50.470;12.072;2023-01-05T07:39:28;3.03;;;1.38;;
9330;SDS011;4704;50.470;12.072;2023-01-05T07:41:55;3.08;;;1.27;;
9330;SDS011;4704;50.470;12.072;2023-01-05T07:44:22;2.58;;;1.15;;
9330;SDS011;4704;50.470;12.072;2023-01-05T07:46:50;2.47;;;1.33;;
9330;SDS011;4704;50.470;12.072;2023-01-05T07:49:17;2.22;;;1.10;;
9330;SDS011;4704;50.470;12.072;2023-01-05T07:51:47;3.03;;;1.38;;
9330;SDS011;4704;50.470;12.072;2023-01-05T07:54:14;2.30;;;1.30;;
9330;SDS011;4704;50.470;12.072;2023-01-05T07:56:41;3.03;;;1.20;;
9330;SDS011;4704;50.470;12.072;2023-01-05T07:59:09;2.55;;;1.33;;
9330;SDS011;4704;50.470;12.072;2023-01-05T08:01:36;2.70;;;1.27;;
9330;SDS011;4704;50.470;12.072;2023-01-05T08:04:04;3.28;;;1.38;;
9330;SDS011;4704;50.470;12.072;2023-01-05T08:06:31;4.93;;;1.23;;
9330;SDS011;4704;50.470;12.072;2023-01-05T08:09:01;4.10;;;1.08;;
9330;SDS011;4704;50.470;12.072;2023-01-05T08:11:49;3.35;;;1.00;;
9330;SDS011;4704;50.470;12.072;2023-01-05T08:14:16;3.15;;;1.27;;
9330;SDS011;4704;50.470;12.072;2023-01-05T08:16:44;2.13;;;1.02;;
9330;SDS011;4704;50.470;12.072;2023-01-05T08:19:11;1.42;;;1.00;;
9330;SDS011;4704;50.470;12.072;2023-01-05T08:21:39;1.08;;;0.90;;
9330;SDS011;4704;50.470;12.072;2023-01-05T08:24:08;1.90;;;1.33;;
9330;SDS011;4704;50.470;12.072;2023-01-05T08:26:35;2.40;;;1.35;;
9330;SDS011;4704;50.470;12.072;2023-01-05T08:29:03;2.33;;;1.13;;
9330;SDS011;4704;50.470;12.072;2023-01-05T08:31:30;2.63;;;0.98;;
9330;SDS011;4704;50.470;12.072;2023-01-05T08:34:01;2.10;;;1.08;;
9330;SDS011;4704;50.470;12.072;2023-01-05T08:36:29;1.80;;;0.98;;
9330;SDS011;4704;50.470;12.072;2023-01-05T08:38:57;2.15;;;1.10;;
9330;SDS011;4704;50.470;12.072;2023-01-05T08:41:27;3.20;;;1.33;;
9330;SDS011;4704;50.470;12.072;2023-01-05T08:43:57;2.33;;;1.00;;
9330;SDS011;4704;50.470;12.072;2023-01-05T08:46:25;2.38;;;0.80;;
9330;SDS011;4704;50.470;12.072;2023-01-05T08:48:53;1.83;;;1.02;;
9330;SDS011;4704;50.470;12.072;2023-01-05T08:51:21;2.03;;;0.85;;
9330;SDS011;4704;50.470;12.072;2023-01-05T08:53:48;3.17;;;1.17;;
9330;SDS011;4704;50.470;12.072;2023-01-05T08:56:16;3.05;;;1.27;;
9330;SDS011;4704;50.470;12.072;2023-01-05T08:58:45;2.08;;;1.10;;
9330;SDS011;4704;50.470;12.072;2023-01-05T09:01:13;2.22;;;1.00;;
9330;SDS011;4704;50.470;12.072;2023-01-05T09:03:41;2.03;;;1.15;;
9330;SDS011;4704;50.470;12.072;2023-01-05T09:06:09;2.63;;;1.08;;
9330;SDS011;4704;50.470;12.072;2023-01-05T09:08:37;2.22;;;1.05;;
9330;SDS011;4704;50.470;12.072;2023-01-05T09:11:06;2.22;;;1.00;;
9330;SDS011;4704;50.470;12.072;2023-01-05T09:13:33;2.08;;;1.00;;
9330;SDS011;4704;50.470;12.072;2023-01-05T09:16:07;1.92;;;0.90;;
9330;SDS011;4704;50.470;12.072;2023-01-05T09:18:35;1.95;;;1.00;;
9330;SDS011;4704;50.470;12.072;2023-01-05T09:21:02;2.83;;;1.10;;
9330;SDS011;4704;50.470;12.072;2023-01-05T09:23:30;2.63;;;1.00;;
9330;SDS011;4704;50.470;12.072;2023-01-05T09:25:58;1.80;;;0.80;;
9330;SDS011;4704;50.470;12.072;2023-01-05T09:28:25;2.42;;;1.00;;
9330;SDS011;4704;50.470;12.072;2023-01-05T09:30:53;2.45;;;1.20;;
9330;SDS011;4704;50.470;12.072;2023-01-05T09:33:22;2.10;;;1.05;;
9330;SDS011;4704;50.470;12.072;2023-01-05T09:35:53;2.20;;;1.08;;
9330;SDS011;4704;50.470;12.072;2023-01-05T09:38:21;2.40;;;1.08;;
9330;SDS011;4704;50.470;12.072;2023-01-05T09:40:49;1.42;;;0.90;;
9330;SDS011;4704;50.470;12.072;2023-01-05T09:43:18;1.70;;;1.05;;
9330;SDS011;4704;50.470;12.072;2023-01-05T09:45:47;2.08;;;0.90;;
9330;SDS011;4704;50.470;12.072;2023-01-05T09:48:15;1.52;;;0.90;;
9330;SDS011;4704;50.470;12.072;2023-01-05T09:50:45;2.97;;;1.00;;
9330;SDS011;4704;50.470;12.072;2023-01-05T09:53:13;2.28;;;1.20;;
9330;SDS011;4704;50.470;12.072;2023-01-05T09:55:41;1.38;;;0.80;;
9330;SDS011;4704;50.470;12.072;2023-01-05T09:58:11;0.90;;;0.70;;
9330;SDS011;4704;50.470;12.072;2023-01-05T10:00:42;2.22;;;1.05;;
9330;SDS011;4704;50.470;12.072;2023-01-05T10:03:13;0.80;;;0.70;;
9330;SDS011;4704;50.470;12.072;2023-01-05T10:05:42;1.25;;;0.70;;
9330;SDS011;4704;50.470;12.072;2023-01-05T10:08:12;1.33;;;0.70;;
9330;SDS011;4704;50.470;12.072;2023-01-05T10:10:43;2.42;;;1.00;;
9330;SDS011;4704;50.470;12.072;2023-01-05T10:13:31;1.80;;;0.70;;
9330;SDS011;4704;50.470;12.072;2023-01-05T10:15:58;1.60;;;0.77;;
9330;SDS011;4704;50.470;12.072;2023-01-05T10:18:26;1.55;;;0.85;;
9330;SDS011;4704;50.470;12.072;2023-01-05T10:20:59;1.23;;;0.70;;
9330;SDS011;4704;50.470;12.072;2023-01-05T10:23:39;1.40;;;0.80;;
9330;SDS011;4704;50.470;12.072;2023-01-05T10:26:12;0.82;;;0.60;;
9330;SDS011;4704;50.470;12.072;2023-01-05T10:28:43;1.92;;;0.90;;
9330;SDS011;4704;50.470;12.072;2023-01-05T10:31:14;1.33;;;0.88;;
9330;SDS011;4704;50.470;12.072;2023-01-05T10:33:46;1.73;;;1.05;;
9330;SDS011;4704;50.470;12.072;2023-01-05T10:39:01;1.45;;;0.80;;
9330;SDS011;4704;50.470;12.072;2023-01-05T10:41:37;0.90;;;0.68;;
9330;SDS011;4704;50.470;12.072;2023-01-05T10:44:08;1.80;;;0.80;;
9330;SDS011;4704;50.470;12.072;2023-01-05T10:46:40;1.45;;;0.75;;
9330;SDS011;4704;50.470;12.072;2023-01-05T10:49:08;2.00;;;0.98;;
9330;SDS011;4704;50.470;12.072;2023-01-05T10:51:42;0.95;;;0.60;;
9330;SDS011;4704;50.470;12.072;2023-01-05T10:54:13;1.55;;;0.85;;
9330;SDS011;4704;50.470;12.072;2023-01-05T10:56:46;1.48;;;0.80;;
9330;SDS011;4704;50.470;12.072;2023-01-05T10:59:14;0.98;;;0.70;;
9330;SDS011;4704;50.470;12.072;2023-01-05T11:01:42;1.65;;;0.80;;
9330;SDS011;4704;50.470;12.072;2023-01-05T11:04:11;0.73;;;0.50;;
9330;SDS011;4704;50.470;12.072;2023-01-05T11:06:40;1.67;;;0.70;;
9330;SDS011;4704;50.470;12.072;2023-01-05T11:09:11;1.10;;;0.68;;
9330;SDS011;4704;50.470;12.072;2023-01-05T11:11:43;1.02;;;0.60;;
9330;SDS011;4704;50.470;12.072;2023-01-05T11:14:18;1.92;;;0.77;;
9330;SDS011;4704;50.470;12.072;2023-01-05T11:16:47;1.48;;;0.63;;
9330;SDS011;4704;50.470;12.072;2023-01-05T11:19:16;0.80;;;0.60;;
9330;SDS011;4704;50.470;12.072;2023-01-05T11:21:44;0.90;;;0.80;;
9330;SDS011;4704;50.470;12.072;2023-01-05T11:24:25;1.45;;;0.60;;
9330;SDS011;4704;50.470;12.072;2023-01-05T11:26:54;0.93;;;0.60;;
9330;SDS011;4704;50.470;12.072;2023-01-05T11:29:23;1.23;;;0.52;;
9330;SDS011;4704;50.470;12.072;2023-01-05T11:31:51;1.05;;;0.60;;
9330;SDS011;4704;50.470;12.072;2023-01-05T11:34:23;0.98;;;0.70;;
9330;SDS011;4704;50.470;12.072;2023-01-05T11:36:53;0.55;;;0.50;;
9330;SDS011;4704;50.470;12.072;2023-01-05T11:39:24;1.13;;;0.60;;
9330;SDS011;4704;50.470;12.072;2023-01-05T11:42:05;0.70;;;0.52;;
9330;SDS011;4704;50.470;12.072;2023-01-05T11:44:33;0.55;;;0.43;;
9330;SDS011;4704;50.470;12.072;2023-01-05T11:47:00;0.95;;;0.60;;
9330;SDS011;4704;50.470;12.072;2023-01-05T11:49:28;0.95;;;0.60;;
9330;SDS011;4704;50.470;12.072;2023-01-05T11:51:55;1.10;;;0.60;;
9330;SDS011;4704;50.470;12.072;2023-01-05T11:54:25;0.70;;;0.52;;
9330;SDS011;4704;50.470;12.072;2023-01-05T11:57:07;0.80;;;0.60;;
9330;SDS011;4704;50.470;12.072;2023-01-05T11:59:39;0.70;;;0.40;;
9330;SDS011;4704;50.470;12.072;2023-01-05T12:02:12;0.70;;;0.60;;
9330;SDS011;4704;50.470;12.072;2023-01-05T12:04:54;0.73;;;0.60;;
9330;SDS011;4704;50.470;12.072;2023-01-05T12:07:29;0.90;;;0.50;;
9330;SDS011;4704;50.470;12.072;2023-01-05T12:10:02;1.05;;;0.60;;
9330;SDS011;4704;50.470;12.072;2023-01-05T12:12:37;0.52;;;0.40;;
9330;SDS011;4704;50.470;12.072;2023-01-05T12:15:20;0.65;;;0.40;;
9330;SDS011;4704;50.470;12.072;2023-01-05T12:17:53;1.08;;;0.60;;
9330;SDS011;4704;50.470;12.072;2023-01-05T12:20:36;0.73;;;0.40;;
9330;SDS011;4704;50.470;12.072;2023-01-05T12:25:51;1.77;;;0.70;;
9330;SDS011;4704;50.470;12.072;2023-01-05T12:31:09;0.57;;;0.50;;
9330;SDS011;4704;50.470;12.072;2023-01-05T12:33:54;1.17;;;0.70;;
9330;SDS011;4704;50.470;12.072;2023-01-05T12:36:27;0.60;;;0.43;;
9330;SDS011;4704;50.470;12.072;2023-01-05T12:39:16;0.77;;;0.57;;
9330;SDS011;4704;50.470;12.072;2023-01-05T12:41:51;0.63;;;0.47;;
9330;SDS011;4704;50.470;12.072;2023-01-05T12:47:21;0.68;;;0.40;;
9330;SDS011;4704;50.470;12.072;2023-01-05T12:49:54;0.60;;;0.40;;
9330;SDS011;4704;50.470;12.072;2023-01-05T12:52:24;0.50;;;0.50;;
9330;SDS011;4704;50.470;12.072;2023-01-05T12:54:58;1.15;;;0.47;;
9330;SDS011;4704;50.470;12.072;2023-01-05T12:57:28;0.80;;;0.40;;
9330;SDS011;4704;50.470;12.072;2023-01-05T12:59:58;0.60;;;0.40;;
9330;SDS011;4704;50.470;12.072;2023-01-05T13:02:30;0.47;;;0.40;;
9330;SDS011;4704;50.470;12.072;2023-01-05T13:05:00;0.63;;;0.50;;
9330;SDS011;4704;50.470;12.072;2023-01-05T13:07:29;0.57;;;0.50;;
9330;SDS011;4704;50.470;12.072;2023-01-05T13:09:58;0.68;;;0.50;;
9330;SDS011;4704;50.470;12.072;2023-01-05T13:12:26;0.40;;;0.40;;
9330;SDS011;4704;50.470;12.072;2023-01-05T13:14:59;0.93;;;0.60;;
9330;SDS011;4704;50.470;12.072;2023-01-05T13:17:29;0.63;;;0.47;;
9330;SDS011;4704;50.470;12.072;2023-01-05T13:20:01;0.70;;;0.40;;
9330;SDS011;4704;50.470;12.072;2023-01-05T13:22:30;0.60;;;0.30;;
9330;SDS011;4704;50.470;12.072;2023-01-05T13:25:00;0.47;;;0.47;;
9330;SDS011;4704;50.470;12.072;2023-01-05T13:27:29;0.30;;;0.30;;
9330;SDS011;4704;50.470;12.072;2023-01-05T13:29:57;0.63;;;0.57;;
9330;SDS011;4704;50.470;12.072;2023-01-05T13:32:36;0.60;;;0.40;;
9330;SDS011;4704;50.470;12.072;2023-01-05T13:35:17;0.88;;;0.50;;
9330;SDS011;4704;50.470;12.072;2023-01-05T13:40:44;0.50;;;0.40;;
9330;SDS011;4704;50.470;12.072;2023-01-05T13:43:19;0.47;;;0.40;;
9330;SDS011;4704;50.470;12.072;2023-01-05T13:45:57;0.75;;;0.40;;
9330;SDS011;4704;50.470;12.072;2023-01-05T13:48:31;0.57;;;0.40;;
9330;SDS011;4704;50.470;12.072;2023-01-05T13:51:06;0.68;;;0.30;;
9330;SDS011;4704;50.470;12.072;2023-01-05T13:53:39;0.40;;;0.35;;
9330;SDS011;4704;50.470;12.072;2023-01-05T13:56:09;0.40;;;0.40;;
9330;SDS011;4704;50.470;12.072;2023-01-05T13:58:41;0.30;;;0.30;;
9330;SDS011;4704;50.470;12.072;2023-01-05T14:01:11;0.43;;;0.43;;
9330;SDS011;4704;50.470;12.072;2023-01-05T14:03:45;0.43;;;0.40;;
9330;SDS011;4704;50.470;12.072;2023-01-05T14:06:14;0.40;;;0.40;;
9330;SDS011;4704;50.470;12.072;2023-01-05T14:08:46;0.38;;;0.30;;
9330;SDS011;4704;50.470;12.072;2023-01-05T14:11:15;0.45;;;0.40;;
9330;SDS011;4704;50.470;12.072;2023-01-05T14:13:44;0.50;;;0.50;;
9330;SDS011;4704;50.470;12.072;2023-01-05T14:19:08;0.73;;;0.30;;
9330;SDS011;4704;50.470;12.072;2023-01-05T14:21:57;0.43;;;0.40;;
9330;SDS011;4704;50.470;12.072;2023-01-05T14:24:26;0.35;;;0.35;;
9330;SDS011;4704;50.470;12.072;2023-01-05T14:27:04;0.50;;;0.35;;
9330;SDS011;4704;50.470;12.072;2023-01-05T14:32:18;0.43;;;0.40;;
9330;SDS011;4704;50.470;12.072;2023-01-05T14:34:50;0.45;;;0.30;;
9330;SDS011;4704;50.470;12.072;2023-01-05T14:37:20;0.63;;;0.50;;
9330;SDS011;4704;50.470;12.072;2023-01-05T14:39:48;0.57;;;0.40;;
9330;SDS011;4704;50.470;12.072;2023-01-05T14:42:24;0.40;;;0.40;;
9330;SDS011;4704;50.470;12.072;2023-01-05T14:44:56;0.50;;;0.30;;
9330;SDS011;4704;50.470;12.072;2023-01-05T14:47:35;0.30;;;0.30;;
9330;SDS011;4704;50.470;12.072;2023-01-05T14:50:12;0.50;;;0.40;;
9330;SDS011;4704;50.470;12.072;2023-01-05T14:52:52;0.47;;;0.45;;
9330;SDS011;4704;50.470;12.072;2023-01-05T14:55:21;0.40;;;0.40;;
9330;SDS011;4704;50.470;12.072;2023-01-05T14:57:50;0.50;;;0.35;;
9330;SDS011;4704;50.470;12.072;2023-01-05T15:00:21;0.63;;;0.63;;
9330;SDS011;4704;50.470;12.072;2023-01-05T15:02:53;0.50;;;0.50;;
9330;SDS011;4704;50.470;12.072;2023-01-05T15:05:23;0.47;;;0.30;;
9330;SDS011;4704;50.470;12.072;2023-01-05T15:07:53;0.32;;;0.30;;
9330;SDS011;4704;50.470;12.072;2023-01-05T15:10:33;0.32;;;0.30;;
9330;SDS011;4704;50.470;12.072;2023-01-05T15:13:15;0.50;;;0.40;;
9330;SDS011;4704;50.470;12.072;2023-01-05T15:15:48;0.35;;;0.35;;
9330;SDS011;4704;50.470;12.072;2023-01-05T15:18:39;0.77;;;0.47;;
9330;SDS011;4704;50.470;12.072;2023-01-05T15:24:00;0.65;;;0.40;;
9330;SDS011;4704;50.470;12.072;2023-01-05T15:29:32;0.30;;;0.30;;
9330;SDS011;4704;50.470;12.072;2023-01-05T15:32:02;0.40;;;0.30;;
9330;SDS011;4704;50.470;12.072;2023-01-05T15:34:33;0.43;;;0.40;;
9330;SDS011;4704;50.470;12.072;2023-01-05T15:37:03;0.30;;;0.30;;
9330;SDS011;4704;50.470;12.072;2023-01-05T15:39:44;0.40;;;0.40;;
9330;SDS011;4704;50.470;12.072;2023-01-05T15:42:14;0.32;;;0.32;;
9330;SDS011;4704;50.470;12.072;2023-01-05T15:44:43;0.45;;;0.30;;
9330;SDS011;4704;50.470;12.072;2023-01-05T15:47:12;0.55;;;0.47;;